Aeroporto :
LOGIN :

Iscrizione | Disclaimer

   EN    FR    IT 

 










Sommario :    VFR   VFR Marginale   IFR   IFR Intensivo   IFR Molto Intensivo
Visibilità : 
Base nubi : 
>= 8 km
>= 3000ft
5 / 8 km
1000 / 3000 ft
1500m / 5 km
500 / 1000 ft
800 / 1500m
200 / 500 ft
< 800m
< 200 ft
Simboli :   Temporali  Nebbia  Neve Forte  Precipitazioni Forti  Vento > 20 kt
SIGMETs :   Varie  Temporali  Ghiacco  Turbolenza  Onda orograficha  Ceneri Vulcaniche







- Altitudine del aeroporto : 25 ft
- Codice IATA : TPS


LICT - Vincenzo Florio Trapani

ULTIMO METAR :
  • 220155Z 12007KT 9999 SCT053 15/13 Q1017

METARs OBSOLETI :
  • 220055Z 11005KT CAVOK 15/13 Q1017
  • 212355Z 11004KT CAVOK 15/14 Q1017

TAF TAF LICT
Valido dal 22 a 03 ore il 22 a 12 ore UTC


220200Z 2203/2212 14006KT 9999 SCT030
BECMG 2208/2209 21010KT
Nessun NOTAM noto per questo aeroporto.
1 SIGMET conosciuto per la FIR Roma (LIRR) :
 
Turbolenza severa
LIRR SIGMET 1 VALID 220230/220430 LIIB
LIRR ROMA FIR SEV TURB FCST WI N3856 E01627 - N3850 E01857 - N3728 E01853 - N3720 E01635 - N3749 E01125 - N4014 E01111 - N4135 E01222 - N4128 E01422 - N4112 E01507 - N4006 E01546 - N3856 E01627 FL270/380 STNR NC=



MetMap, La meteo Aeronautica in un colpo d'occhio ! - Copyright ORBIFLY Dicembre 2007 - Disclaimer

ORBIFLY MET'MAP TEAM :

Programmazione e sviluppo : Alexandra Zaïnal
Concezione e sviluppo : Baudouin d'Aumeries
Co-Programmazione e sviluppo : Marc-Olivier Méhu
Supporto tecnico e logistico : Manuel Goepfert
Aiuto per la traduzione : Arnaldo La Scala

Contatto : metmap@orbifly.com




FONTI E CREDITI :

   NOAA